createdAt,value
2022-11-01T00:01:32.439Z,100.00
2022-11-01T00:03:58.968Z,100.00
2022-11-01T00:06:25.325Z,100.00
2022-11-01T00:08:52.751Z,100.00
2022-11-01T00:11:19.282Z,100.00
2022-11-01T00:13:46.737Z,100.00
2022-11-01T00:16:13.630Z,100.00
2022-11-01T00:18:40.028Z,100.00
2022-11-01T00:21:06.748Z,100.00
2022-11-01T00:23:36.237Z,100.00
2022-11-01T00:26:03.189Z,100.00
2022-11-01T00:28:31.888Z,100.00
2022-11-01T00:31:01.699Z,100.00
2022-11-01T00:33:28.098Z,100.00
2022-11-01T00:35:54.547Z,100.00
2022-11-01T00:38:20.977Z,100.00
2022-11-01T00:40:47.377Z,100.00
2022-11-01T00:43:14.163Z,100.00
2022-11-01T00:45:42.992Z,100.00
2022-11-01T00:48:12.007Z,100.00
2022-11-01T00:50:38.910Z,100.00
2022-11-01T00:53:05.321Z,100.00
2022-11-01T00:55:31.704Z,100.00
2022-11-01T00:57:58.041Z,100.00
2022-11-01T01:00:24.373Z,100.00
2022-11-01T01:02:50.857Z,100.00
2022-11-01T01:05:17.589Z,100.00
2022-11-01T01:07:44.283Z,100.00
2022-11-01T01:10:10.607Z,100.00
2022-11-01T01:12:36.922Z,100.00
2022-11-01T01:15:03.619Z,100.00
2022-11-01T01:17:33.650Z,100.00
2022-11-01T01:20:00.317Z,100.00
2022-11-01T01:22:27.138Z,100.00
2022-11-01T01:24:53.541Z,100.00
2022-11-01T01:27:20.489Z,100.00
2022-11-01T01:29:46.947Z,100.00
2022-11-01T01:32:17.611Z,100.00
2022-11-01T01:34:43.964Z,100.00
2022-11-01T01:37:10.482Z,100.00
2022-11-01T01:39:37.186Z,100.00
2022-11-01T01:42:12.974Z,100.00
2022-11-01T01:44:51.618Z,100.00
2022-11-01T01:47:28.539Z,100.00
2022-11-01T01:50:15.211Z,100.00
2022-11-01T01:52:56.539Z,100.00
2022-11-01T01:55:25.460Z,100.00
2022-11-01T01:57:53.630Z,100.00
2022-11-01T02:00:20.358Z,100.00
2022-11-01T02:02:46.705Z,100.00
2022-11-01T02:05:21.586Z,100.00
2022-11-01T02:07:48.796Z,100.00
2022-11-01T02:10:15.810Z,100.00
2022-11-01T02:12:48.855Z,100.00
2022-11-01T02:15:19.992Z,100.00
2022-11-01T02:17:55.200Z,100.00
2022-11-01T02:20:27.492Z,100.00
2022-11-01T02:23:12.299Z,100.00
2022-11-01T02:26:06.965Z,100.00
2022-11-01T02:28:39.506Z,100.00
2022-11-01T02:31:28.714Z,100.00
2022-11-01T02:33:57.873Z,100.00
2022-11-01T02:36:33.594Z,100.00
2022-11-01T02:39:08.405Z,100.00
2022-11-01T02:41:39.656Z,100.00
2022-11-01T02:44:25.605Z,100.00
2022-11-01T02:47:01.426Z,100.00
2022-11-01T02:49:34.425Z,100.00
2022-11-01T02:52:02.032Z,100.00
2022-11-01T02:54:33.152Z,100.00
2022-11-01T02:57:20.855Z,100.00
2022-11-01T02:59:48.790Z,100.00
2022-11-01T03:02:39.339Z,100.00
2022-11-01T03:05:24.716Z,100.00
2022-11-01T03:07:52.673Z,100.00
2022-11-01T03:10:22.324Z,100.00
2022-11-01T03:12:57.710Z,100.00
2022-11-01T03:15:28.961Z,100.00
2022-11-01T03:18:04.407Z,100.00
2022-11-01T03:20:47.531Z,100.00
2022-11-01T03:23:28.727Z,100.00
2022-11-01T03:25:57.245Z,100.00
2022-11-01T03:28:49.960Z,100.00
2022-11-01T03:31:19.334Z,100.00
2022-11-01T03:33:48.077Z,100.00
2022-11-01T03:36:16.088Z,100.00
2022-11-01T03:38:44.878Z,100.00
2022-11-01T03:41:16.845Z,100.00
2022-11-01T03:43:43.481Z,100.00
2022-11-01T03:46:10.247Z,100.00
2022-11-01T03:48:40.347Z,100.00
2022-11-01T03:51:06.721Z,100.00
2022-11-01T03:53:33.778Z,100.00
2022-11-01T03:56:00.630Z,100.00
2022-11-01T03:58:41.771Z,100.00
2022-11-01T04:01:09.306Z,100.00
2022-11-01T04:03:36.354Z,100.00
2022-11-01T04:06:03.082Z,100.00
2022-11-01T04:08:29.424Z,100.00
2022-11-01T04:10:55.826Z,100.00
2022-11-01T04:13:22.219Z,100.00
2022-11-01T04:16:07.103Z,100.00
2022-11-01T04:18:51.983Z,100.00
2022-11-01T04:21:19.913Z,100.00
2022-11-01T04:23:46.639Z,100.00
2022-11-01T04:26:14.261Z,100.00
2022-11-01T04:28:40.629Z,100.00
2022-11-01T04:31:07.611Z,100.00
2022-11-01T04:33:33.931Z,100.00
2022-11-01T04:36:06.894Z,100.00
2022-11-01T04:38:33.467Z,100.00
2022-11-01T04:40:59.870Z,100.00
2022-11-01T04:43:26.223Z,100.00
2022-11-01T04:45:57.760Z,100.00
2022-11-01T04:48:24.481Z,100.00
2022-11-01T04:50:50.792Z,100.00
2022-11-01T04:53:17.301Z,100.00
2022-11-01T04:55:43.635Z,100.00
2022-11-01T04:58:10.896Z,100.00
2022-11-01T05:00:38.119Z,100.00
2022-11-01T05:03:07.183Z,100.00
2022-11-01T05:05:34.696Z,100.00
2022-11-01T05:10:34.444Z,100.00
2022-11-01T05:13:01.892Z,100.00
2022-11-01T05:15:28.616Z,100.00
2022-11-01T05:17:55.183Z,100.00
2022-11-01T05:20:21.496Z,100.00
2022-11-01T05:22:48.966Z,100.00
2022-11-01T05:25:15.539Z,100.00
2022-11-01T05:27:41.923Z,100.00
2022-11-01T05:30:10.248Z,100.00
2022-11-01T05:32:37.921Z,100.00
2022-11-01T05:35:04.872Z,100.00
2022-11-01T05:37:31.632Z,100.00
2022-11-01T05:39:58.052Z,100.00
2022-11-01T05:42:24.355Z,100.00
2022-11-01T05:44:50.903Z,100.00
2022-11-01T05:47:17.716Z,100.00
2022-11-01T05:49:44.176Z,100.00
2022-11-01T05:52:10.580Z,100.00
2022-11-01T05:54:36.944Z,100.00
2022-11-01T05:57:04.822Z,100.00
2022-11-01T05:59:31.263Z,100.00
2022-11-01T06:01:57.817Z,100.00
2022-11-01T06:04:24.260Z,100.00
2022-11-01T06:06:50.614Z,100.00
2022-11-01T06:09:16.920Z,100.00
2022-11-01T06:11:44.322Z,100.00
2022-11-01T06:14:10.854Z,100.00
2022-11-01T06:16:37.310Z,100.00
2022-11-01T06:19:03.635Z,100.00
2022-11-01T06:21:30.493Z,100.00
2022-11-01T06:23:56.979Z,100.00
2022-11-01T06:26:23.455Z,100.00
2022-11-01T06:28:49.990Z,100.00
2022-11-01T06:31:16.319Z,100.00
2022-11-01T06:33:42.689Z,100.00
2022-11-01T06:36:09.238Z,100.00
2022-11-01T06:38:35.691Z,100.00
2022-11-01T06:41:03.303Z,100.00
2022-11-01T06:43:29.712Z,100.00
2022-11-01T06:45:58.621Z,100.00
2022-11-01T06:48:31.138Z,100.00
2022-11-01T06:50:57.667Z,100.00
2022-11-01T06:53:24.663Z,100.00
2022-11-01T06:55:52.296Z,100.00
2022-11-01T06:58:18.876Z,100.00
2022-11-01T07:00:45.221Z,100.00
2022-11-01T07:03:12.470Z,100.00
2022-11-01T07:05:39.296Z,100.00
2022-11-01T07:08:10.333Z,100.00
2022-11-01T07:10:39.132Z,100.00
2022-11-01T07:13:06.468Z,100.00
2022-11-01T07:15:33.253Z,100.00
2022-11-01T07:18:01.225Z,100.00
2022-11-01T07:20:29.013Z,100.00
2022-11-01T07:22:59.973Z,100.00
2022-11-01T07:25:27.290Z,100.00
2022-11-01T07:27:53.986Z,100.00
2022-11-01T07:30:20.690Z,100.00
2022-11-01T07:32:47.150Z,100.00
2022-11-01T07:35:13.725Z,100.00
2022-11-01T07:37:41.181Z,100.00
2022-11-01T07:40:07.764Z,100.00
2022-11-01T07:42:40.343Z,100.00
2022-11-01T07:45:12.737Z,100.00
2022-11-01T07:47:39.806Z,100.00
2022-11-01T07:50:07.090Z,100.00
2022-11-01T07:52:33.848Z,100.00
2022-11-01T07:55:00.288Z,100.00
2022-11-01T07:57:26.800Z,100.00
2022-11-01T07:59:53.195Z,100.00
2022-11-01T08:02:19.670Z,100.00
2022-11-01T08:04:47.078Z,100.00
2022-11-01T08:07:13.409Z,100.00
2022-11-01T08:09:42.258Z,100.00
2022-11-01T08:12:08.738Z,100.00
2022-11-01T08:14:35.073Z,100.00
2022-11-01T08:17:01.863Z,100.00
2022-11-01T08:19:28.339Z,100.00
2022-11-01T08:21:57.159Z,100.00
2022-11-01T08:24:23.507Z,100.00
2022-11-01T08:26:49.835Z,100.00
2022-11-01T08:29:16.179Z,100.00
2022-11-01T08:31:43.048Z,100.00
2022-11-01T08:34:13.203Z,100.00
2022-11-01T08:36:43.081Z,100.00
2022-11-01T08:41:41.061Z,100.00
2022-11-01T08:44:07.738Z,100.00
2022-11-01T08:46:34.162Z,100.00
2022-11-01T08:49:00.588Z,100.00
2022-11-01T08:51:27.781Z,100.00
2022-11-01T08:53:54.838Z,100.00
2022-11-01T08:56:21.805Z,100.00
2022-11-01T08:58:51.958Z,100.00
2022-11-01T09:01:18.413Z,100.00
2022-11-01T09:03:44.932Z,100.00
2022-11-01T09:06:11.409Z,100.00
2022-11-01T09:08:37.835Z,100.00
2022-11-01T09:11:06.281Z,100.00
2022-11-01T09:13:33.358Z,100.00
2022-11-01T09:16:02.414Z,100.00
2022-11-01T09:18:29.214Z,100.00
2022-11-01T09:20:56.223Z,100.00
2022-11-01T09:23:22.857Z,100.00
2022-11-01T09:25:49.393Z,100.00
2022-11-01T09:28:15.821Z,100.00
2022-11-01T09:30:49.871Z,100.00
2022-11-01T09:33:22.493Z,100.00
2022-11-01T09:35:59.179Z,100.00
2022-11-01T09:38:27.319Z,100.00
2022-11-01T09:41:13.894Z,100.00
2022-11-01T09:43:42.991Z,100.00
2022-11-01T09:46:13.853Z,100.00
2022-11-01T09:48:41.659Z,95.68
2022-11-01T09:51:12.259Z,96.30
2022-11-01T09:53:42.067Z,90.14
2022-11-01T09:56:16.792Z,83.46
2022-11-01T09:58:52.029Z,87.64
2022-11-01T10:01:24.285Z,86.53
2022-11-01T10:03:59.831Z,90.26
2022-11-01T10:06:31.701Z,94.19
2022-11-01T10:09:02.270Z,100.00
2022-11-01T10:11:35.849Z,100.00
2022-11-01T10:14:05.304Z,100.00
2022-11-01T10:16:43.721Z,100.00
2022-11-01T10:19:11.454Z,100.00
2022-11-01T10:21:42.970Z,100.00
2022-11-01T10:24:16.587Z,100.00
2022-11-01T10:26:45.328Z,100.00
2022-11-01T10:29:20.523Z,100.00
2022-11-01T10:31:49.376Z,100.00
2022-11-01T10:34:22.968Z,100.00
2022-11-01T10:36:50.612Z,100.00
2022-11-01T10:42:12.886Z,100.00
2022-11-01T10:44:59.541Z,100.00
2022-11-01T10:47:28.139Z,100.00
2022-11-01T10:50:06.929Z,100.00
2022-11-01T10:52:57.321Z,100.00
2022-11-01T10:55:27.855Z,100.00
2022-11-01T10:58:03.012Z,100.00
2022-11-01T11:00:30.975Z,100.00
2022-11-01T11:02:58.734Z,100.00
2022-11-01T11:05:26.209Z,100.00
2022-11-01T11:07:52.550Z,100.00
2022-11-01T11:10:23.968Z,100.00
2022-11-01T11:12:52.649Z,100.00
2022-11-01T11:15:25.662Z,100.00
2022-11-01T11:17:56.026Z,100.00
2022-11-01T11:20:26.387Z,100.00
2022-11-01T11:22:53.880Z,100.00
2022-11-01T11:25:22.651Z,100.00
2022-11-01T11:27:56.615Z,100.00
2022-11-01T11:30:28.480Z,100.00
2022-11-01T11:32:55.843Z,100.00
2022-11-01T11:35:24.436Z,100.00
2022-11-01T11:37:57.427Z,100.00
2022-11-01T11:40:25.783Z,100.00
2022-11-01T11:42:53.309Z,100.00
2022-11-01T11:45:24.924Z,100.00
2022-11-01T11:47:51.639Z,100.00
2022-11-01T11:50:20.762Z,100.00
2022-11-01T11:53:16.920Z,100.00
2022-11-01T11:55:45.798Z,100.00
2022-11-01T11:58:35.544Z,100.00
2022-11-01T12:01:06.820Z,100.00
2022-11-01T12:03:44.632Z,100.00
2022-11-01T12:06:17.139Z,100.00
2022-11-01T12:08:45.305Z,100.00
2022-11-01T12:11:12.318Z,100.00
2022-11-01T12:13:41.251Z,100.00
2022-11-01T12:16:07.764Z,100.00
2022-11-01T12:18:34.195Z,100.00
2022-11-01T12:21:00.740Z,100.00
2022-11-01T12:23:30.818Z,100.00
2022-11-01T12:25:59.524Z,100.00
2022-11-01T12:28:26.101Z,100.00
2022-11-01T12:30:56.353Z,100.00
2022-11-01T12:33:29.772Z,100.00
2022-11-01T12:35:57.290Z,100.00
2022-11-01T12:38:37.028Z,100.00
2022-11-01T12:41:12.782Z,100.00
2022-11-01T12:43:58.915Z,100.00
2022-11-01T12:46:31.002Z,100.00
2022-11-01T12:49:01.044Z,100.00
2022-11-01T12:51:30.327Z,100.00
2022-11-01T12:54:00.438Z,98.26
2022-11-01T12:56:27.204Z,97.78
2022-11-01T12:58:55.713Z,98.66
2022-11-01T13:01:22.288Z,98.18
2022-11-01T13:04:07.310Z,98.49
2022-11-01T13:06:52.619Z,97.70
2022-11-01T13:09:22.138Z,98.55
2022-11-01T13:11:57.864Z,95.90
2022-11-01T13:14:33.896Z,93.51
2022-11-01T13:17:23.374Z,95.35
2022-11-01T13:19:56.669Z,96.89
2022-11-01T13:22:28.598Z,96.53
2022-11-01T13:25:00.566Z,96.59
2022-11-01T13:27:33.518Z,94.23
2022-11-01T13:30:02.955Z,97.96
2022-11-01T13:32:45.434Z,94.85
2022-11-01T13:35:12.590Z,94.02
2022-11-01T13:37:49.063Z,93.48
2022-11-01T13:40:27.998Z,92.24
2022-11-01T13:42:57.758Z,88.39
2022-11-01T13:45:42.573Z,87.88
2022-11-01T13:48:35.679Z,85.68
2022-11-01T13:51:02.443Z,91.05
2022-11-01T13:53:35.326Z,92.63
2022-11-01T13:56:08.506Z,91.15
2022-11-01T13:58:35.252Z,93.47
2022-11-01T14:01:25.109Z,93.19
2022-11-01T14:04:06.233Z,90.48
2022-11-01T14:06:36.806Z,93.85
2022-11-01T14:09:19.243Z,94.72
2022-11-01T14:11:49.507Z,91.82
2022-11-01T14:14:31.030Z,89.65
2022-11-01T14:17:15.930Z,94.94
2022-11-01T14:19:43.768Z,95.11
2022-11-01T14:22:22.196Z,89.32
2022-11-01T14:24:58.605Z,93.45
2022-11-01T14:27:25.154Z,89.81
2022-11-01T14:29:52.328Z,89.77
2022-11-01T14:32:19.689Z,91.52
2022-11-01T14:34:55.355Z,93.05
2022-11-01T14:37:23.637Z,95.53
2022-11-01T14:40:22.393Z,94.11
2022-11-01T14:42:50.491Z,95.04
2022-11-01T14:45:28.457Z,97.61
2022-11-01T14:47:58.146Z,99.60
2022-11-01T14:50:24.490Z,99.45
2022-11-01T14:52:55.280Z,100.00
2022-11-01T14:55:32.306Z,100.00
2022-11-01T14:58:09.221Z,100.00
2022-11-01T15:00:35.769Z,100.00
2022-11-01T15:03:02.546Z,100.00
2022-11-01T15:05:29.182Z,100.00
2022-11-01T15:07:56.601Z,100.00
2022-11-01T15:10:23.380Z,100.00
2022-11-01T15:12:54.000Z,100.00
2022-11-01T15:15:22.494Z,100.00
2022-11-01T15:17:56.889Z,100.00
2022-11-01T15:20:25.208Z,100.00
2022-11-01T15:22:54.293Z,100.00
2022-11-01T15:25:22.600Z,100.00
2022-11-01T15:27:49.735Z,100.00
2022-11-01T15:30:19.758Z,100.00
2022-11-01T15:32:46.107Z,100.00
2022-11-01T15:35:23.594Z,100.00
2022-11-01T15:37:53.310Z,100.00
2022-11-01T15:40:33.014Z,100.00
2022-11-01T15:43:00.871Z,100.00
2022-11-01T15:45:28.010Z,100.00
2022-11-01T15:47:54.760Z,100.00
2022-11-01T15:50:21.146Z,100.00
2022-11-01T15:52:47.580Z,100.00
2022-11-01T15:55:28.965Z,100.00
2022-11-01T15:58:05.257Z,100.00
2022-11-01T16:00:41.918Z,100.00
2022-11-01T16:03:17.160Z,100.00
2022-11-01T16:05:48.336Z,100.00
2022-11-01T16:08:22.777Z,100.00
2022-11-01T16:10:49.729Z,100.00
2022-11-01T16:13:17.623Z,100.00
2022-11-01T16:15:58.642Z,100.00
2022-11-01T16:18:27.873Z,100.00
2022-11-01T16:21:00.895Z,100.00
2022-11-01T16:23:32.387Z,100.00
2022-11-01T16:26:06.594Z,100.00
2022-11-01T16:28:40.598Z,100.00
2022-11-01T16:31:22.669Z,100.00
2022-11-01T16:33:49.689Z,100.00
2022-11-01T16:36:19.411Z,100.00
2022-11-01T16:38:46.849Z,100.00
2022-11-01T16:41:16.555Z,100.00
2022-11-01T16:43:43.373Z,100.00
2022-11-01T16:46:09.742Z,100.00
2022-11-01T16:48:50.568Z,100.00
2022-11-01T16:51:17.420Z,100.00
2022-11-01T16:53:43.819Z,100.00
2022-11-01T16:56:36.555Z,100.00
2022-11-01T16:59:28.397Z,100.00
2022-11-01T17:01:55.990Z,100.00
2022-11-01T17:04:22.798Z,100.00
2022-11-01T17:06:49.608Z,100.00
2022-11-01T17:09:17.312Z,100.00
2022-11-01T17:11:50.935Z,100.00
2022-11-01T17:14:19.563Z,100.00
2022-11-01T17:16:47.582Z,100.00
2022-11-01T17:19:18.496Z,100.00
2022-11-01T17:21:46.037Z,100.00
2022-11-01T17:24:13.399Z,100.00
2022-11-01T17:26:40.815Z,100.00
2022-11-01T17:29:08.631Z,100.00
2022-11-01T17:31:37.227Z,100.00
2022-11-01T17:34:05.784Z,100.00
2022-11-01T17:36:32.463Z,100.00
2022-11-01T17:38:59.971Z,100.00
2022-11-01T17:41:26.391Z,100.00
2022-11-01T17:43:53.900Z,100.00
2022-11-01T17:46:24.073Z,100.00
2022-11-01T17:48:50.561Z,100.00
2022-11-01T17:51:17.976Z,100.00
2022-11-01T17:53:45.428Z,100.00
2022-11-01T17:56:11.730Z,100.00
2022-11-01T17:58:38.100Z,100.00
2022-11-01T18:01:04.608Z,100.00
2022-11-01T18:03:31.821Z,100.00
2022-11-01T18:05:59.331Z,100.00
2022-11-01T18:08:27.332Z,100.00
2022-11-01T18:11:12.232Z,100.00
2022-11-01T18:14:03.546Z,100.00
2022-11-01T18:16:45.602Z,100.00
2022-11-01T18:19:14.945Z,100.00
2022-11-01T18:21:50.628Z,100.00
2022-11-01T18:24:22.377Z,100.00
2022-11-01T18:26:49.236Z,100.00
2022-11-01T18:29:21.244Z,100.00
2022-11-01T18:32:02.973Z,100.00
2022-11-01T18:34:40.253Z,100.00
2022-11-01T18:37:15.391Z,100.00
2022-11-01T18:39:56.685Z,100.00
2022-11-01T18:42:24.471Z,100.00
2022-11-01T18:44:51.448Z,100.00
2022-11-01T18:47:23.301Z,100.00
2022-11-01T18:49:50.113Z,100.00
2022-11-01T18:52:19.093Z,100.00
2022-11-01T18:54:56.748Z,100.00
2022-11-01T18:57:24.702Z,100.00
2022-11-01T18:59:52.914Z,100.00
2022-11-01T19:02:21.375Z,100.00
2022-11-01T19:04:49.780Z,100.00
2022-11-01T19:07:21.554Z,100.00
2022-11-01T19:09:47.865Z,100.00
2022-11-01T19:12:16.153Z,100.00
2022-11-01T19:14:43.294Z,100.00
2022-11-01T19:17:29.502Z,100.00
2022-11-01T19:19:59.751Z,100.00
2022-11-01T19:22:31.266Z,100.00
2022-11-01T19:24:59.828Z,100.00
2022-11-01T19:27:27.388Z,100.00
2022-11-01T19:29:57.970Z,100.00
2022-11-01T19:32:24.784Z,100.00
2022-11-01T19:34:52.454Z,100.00
2022-11-01T19:37:22.173Z,100.00
2022-11-01T19:39:48.578Z,100.00
2022-11-01T19:42:35.209Z,100.00
2022-11-01T19:45:25.866Z,100.00
2022-11-01T19:47:52.578Z,100.00
2022-11-01T19:50:23.527Z,100.00
2022-11-01T19:52:51.779Z,100.00
2022-11-01T19:55:37.474Z,100.00
2022-11-01T19:58:24.875Z,100.00
2022-11-01T20:01:10.597Z,100.00
2022-11-01T20:03:42.906Z,100.00
2022-11-01T20:06:16.539Z,100.00
2022-11-01T20:08:45.220Z,100.00
2022-11-01T20:11:12.458Z,100.00
2022-11-01T20:13:38.873Z,100.00
2022-11-01T20:16:05.358Z,100.00
2022-11-01T20:18:31.674Z,100.00
2022-11-01T20:20:58.658Z,100.00
2022-11-01T20:23:26.723Z,100.00
2022-11-01T20:25:53.767Z,100.00
2022-11-01T20:28:20.111Z,100.00
2022-11-01T20:30:46.531Z,100.00
2022-11-01T20:33:13.948Z,100.00
2022-11-01T20:35:40.339Z,100.00
2022-11-01T20:38:10.227Z,100.00
2022-11-01T20:40:36.599Z,100.00
2022-11-01T20:43:03.274Z,100.00
2022-11-01T20:45:29.896Z,100.00
2022-11-01T20:47:57.216Z,100.00
2022-11-01T20:50:23.545Z,100.00
2022-11-01T20:52:49.878Z,100.00
2022-11-01T20:55:17.135Z,100.00
2022-11-01T20:57:43.766Z,100.00
2022-11-01T21:00:13.191Z,100.00
2022-11-01T21:02:40.120Z,100.00
2022-11-01T21:05:23.114Z,100.00
2022-11-01T21:07:52.712Z,100.00
2022-11-01T21:10:37.964Z,100.00
2022-11-01T21:13:18.995Z,100.00
2022-11-01T21:15:48.010Z,100.00
2022-11-01T21:18:14.403Z,100.00
2022-11-01T21:20:45.195Z,100.00
2022-11-01T21:23:20.895Z,100.00
2022-11-01T21:25:50.816Z,100.00
2022-11-01T21:28:31.166Z,100.00
2022-11-01T21:31:01.952Z,100.00
2022-11-01T21:33:36.482Z,100.00
2022-11-01T21:36:03.840Z,100.00
2022-11-01T21:38:41.021Z,100.00
2022-11-01T21:41:23.147Z,100.00
2022-11-01T21:43:49.583Z,100.00
2022-11-01T21:46:20.778Z,100.00
2022-11-01T21:48:49.251Z,100.00
2022-11-01T21:51:15.570Z,100.00
2022-11-01T21:53:41.961Z,100.00
2022-11-01T21:56:08.763Z,100.00
2022-11-01T21:58:35.173Z,100.00
2022-11-01T22:01:01.599Z,100.00
2022-11-01T22:03:27.957Z,100.00
2022-11-01T22:05:54.300Z,100.00
2022-11-01T22:08:20.615Z,100.00
2022-11-01T22:10:46.956Z,100.00
2022-11-01T22:13:13.785Z,100.00
2022-11-01T22:15:40.289Z,100.00
2022-11-01T22:18:06.651Z,100.00
2022-11-01T22:20:33.060Z,100.00
2022-11-01T22:22:59.447Z,100.00
2022-11-01T22:25:25.767Z,100.00
2022-11-01T22:27:52.091Z,100.00
2022-11-01T22:30:18.517Z,100.00
2022-11-01T22:32:44.858Z,100.00
2022-11-01T22:35:11.246Z,100.00
2022-11-01T22:37:37.599Z,100.00
2022-11-01T22:40:11.303Z,100.00
2022-11-01T22:42:37.627Z,100.00
2022-11-01T22:45:09.513Z,100.00
2022-11-01T22:47:36.002Z,100.00
2022-11-01T22:50:02.956Z,100.00
2022-11-01T22:52:38.807Z,100.00
2022-11-01T22:55:11.318Z,100.00
2022-11-01T22:57:51.058Z,100.00
2022-11-01T23:00:28.616Z,100.00
2022-11-01T23:02:58.590Z,100.00
2022-11-01T23:05:25.612Z,100.00
2022-11-01T23:07:56.369Z,100.00
2022-11-01T23:10:22.696Z,100.00
2022-11-01T23:13:09.414Z,100.00
2022-11-01T23:15:36.538Z,100.00
2022-11-01T23:18:15.596Z,100.00
2022-11-01T23:20:42.858Z,100.00
2022-11-01T23:23:17.987Z,100.00
2022-11-01T23:25:44.302Z,100.00
2022-11-01T23:28:11.415Z,100.00
2022-11-01T23:30:37.825Z,100.00
2022-11-01T23:33:05.585Z,100.00
2022-11-01T23:35:32.147Z,100.00
2022-11-01T23:37:58.650Z,100.00
2022-11-01T23:40:31.122Z,100.00
2022-11-01T23:42:57.553Z,100.00
2022-11-01T23:45:30.811Z,100.00
2022-11-01T23:47:57.131Z,100.00
2022-11-01T23:50:29.260Z,100.00
2022-11-01T23:52:57.068Z,100.00
2022-11-01T23:55:29.321Z,100.00
2022-11-01T23:58:16.127Z,100.00
